sensor_id;sensor_type;location;lat;lon;timestamp;pressure;altitude;pressure_sealevel;temperature;humidity
13434;BME280;6789;47.678;9.158;2023-05-19T00:01:04;97070.50;;;11.88;80.13
13434;BME280;6789;47.678;9.158;2023-05-19T00:06:04;97064.69;;;11.86;80.14
13434;BME280;6789;47.678;9.158;2023-05-19T00:10:57;97057.25;;;11.83;81.08
13434;BME280;6789;47.678;9.158;2023-05-19T00:15:52;97063.63;;;11.76;81.17
13434;BME280;6789;47.678;9.158;2023-05-19T00:20:46;97062.25;;;11.73;81.39
13434;BME280;6789;47.678;9.158;2023-05-19T00:25:38;97048.38;;;11.66;82.42
13434;BME280;6789;47.678;9.158;2023-05-19T00:30:30;97049.88;;;11.62;82.71
13434;BME280;6789;47.678;9.158;2023-05-19T00:35:23;97057.75;;;11.62;82.47
13434;BME280;6789;47.678;9.158;2023-05-19T00:40:15;97045.63;;;11.61;82.89
13434;BME280;6789;47.678;9.158;2023-05-19T00:45:07;97043.44;;;11.58;82.72
13434;BME280;6789;47.678;9.158;2023-05-19T00:49:59;97047.19;;;11.51;83.38
13434;BME280;6789;47.678;9.158;2023-05-19T00:54:52;97052.44;;;11.51;83.43
13434;BME280;6789;47.678;9.158;2023-05-19T00:59:44;97041.47;;;11.54;83.40
13434;BME280;6789;47.678;9.158;2023-05-19T01:04:37;97036.16;;;11.42;84.29
13434;BME280;6789;47.678;9.158;2023-05-19T01:09:32;97035.94;;;11.44;84.98
13434;BME280;6789;47.678;9.158;2023-05-19T01:14:24;97037.16;;;11.41;84.87
13434;BME280;6789;47.678;9.158;2023-05-19T01:19:49;97028.72;;;11.39;85.56
13434;BME280;6789;47.678;9.158;2023-05-19T01:30:25;97041.69;;;11.35;86.44
13434;BME280;6789;47.678;9.158;2023-05-19T01:35:18;97032.22;;;11.34;86.12
13434;BME280;6789;47.678;9.158;2023-05-19T01:40:11;97041.28;;;11.20;87.79
13434;BME280;6789;47.678;9.158;2023-05-19T01:45:05;97043.47;;;11.23;87.30
13434;BME280;6789;47.678;9.158;2023-05-19T01:49:57;97039.25;;;11.22;87.30
13434;BME280;6789;47.678;9.158;2023-05-19T01:54:49;97042.50;;;11.17;88.09
13434;BME280;6789;47.678;9.158;2023-05-19T02:05:35;97046.84;;;11.12;88.07
13434;BME280;6789;47.678;9.158;2023-05-19T02:10:29;97038.59;;;11.08;88.82
13434;BME280;6789;47.678;9.158;2023-05-19T02:15:28;97038.28;;;11.16;87.87
13434;BME280;6789;47.678;9.158;2023-05-19T02:20:23;97032.53;;;11.08;89.02
13434;BME280;6789;47.678;9.158;2023-05-19T02:25:15;97039.66;;;11.01;89.01
13434;BME280;6789;47.678;9.158;2023-05-19T02:30:08;97047.34;;;11.02;89.51
13434;BME280;6789;47.678;9.158;2023-05-19T02:35:00;97034.50;;;10.94;89.23
13434;BME280;6789;47.678;9.158;2023-05-19T02:39:52;97027.22;;;10.96;88.92
13434;BME280;6789;47.678;9.158;2023-05-19T02:44:43;97034.16;;;10.91;89.74
13434;BME280;6789;47.678;9.158;2023-05-19T02:49:35;97024.09;;;10.88;89.18
13434;BME280;6789;47.678;9.158;2023-05-19T02:54:29;97024.81;;;10.77;89.73
13434;BME280;6789;47.678;9.158;2023-05-19T02:59:21;97017.25;;;10.87;89.39
13434;BME280;6789;47.678;9.158;2023-05-19T03:04:16;97019.19;;;10.73;89.88
13434;BME280;6789;47.678;9.158;2023-05-19T03:09:10;97019.41;;;10.72;90.23
13434;BME280;6789;47.678;9.158;2023-05-19T03:14:02;97018.63;;;10.71;89.87
13434;BME280;6789;47.678;9.158;2023-05-19T03:18:54;97016.06;;;10.65;89.97
13434;BME280;6789;47.678;9.158;2023-05-19T03:23:46;97021.16;;;10.60;90.46
13434;BME280;6789;47.678;9.158;2023-05-19T03:28:38;97029.25;;;10.59;90.07
13434;BME280;6789;47.678;9.158;2023-05-19T03:33:29;97033.84;;;10.63;90.14
13434;BME280;6789;47.678;9.158;2023-05-19T03:38:22;97028.75;;;10.68;89.95
13434;BME280;6789;47.678;9.158;2023-05-19T03:43:14;97033.84;;;10.63;90.00
13434;BME280;6789;47.678;9.158;2023-05-19T03:48:06;97040.53;;;10.59;89.94
13434;BME280;6789;47.678;9.158;2023-05-19T03:52:59;97030.47;;;10.56;89.66
13434;BME280;6789;47.678;9.158;2023-05-19T03:57:51;97036.41;;;10.45;90.74
13434;BME280;6789;47.678;9.158;2023-05-19T04:02:45;97030.59;;;10.43;90.83
13434;BME280;6789;47.678;9.158;2023-05-19T04:07:38;97031.00;;;10.40;91.06
13434;BME280;6789;47.678;9.158;2023-05-19T04:12:30;97036.59;;;10.50;90.44
13434;BME280;6789;47.678;9.158;2023-05-19T04:17:22;97030.53;;;10.50;90.54
13434;BME280;6789;47.678;9.158;2023-05-19T04:22:24;97038.84;;;10.47;90.37
13434;BME280;6789;47.678;9.158;2023-05-19T04:27:18;97034.13;;;10.55;89.88
13434;BME280;6789;47.678;9.158;2023-05-19T04:32:24;97040.00;;;10.51;89.73
13434;BME280;6789;47.678;9.158;2023-05-19T04:37:29;97040.38;;;10.54;90.04
13434;BME280;6789;47.678;9.158;2023-05-19T04:42:25;97041.63;;;10.69;89.69
13434;BME280;6789;47.678;9.158;2023-05-19T04:47:35;97044.03;;;10.71;89.62
13434;BME280;6789;47.678;9.158;2023-05-19T04:52:29;97054.97;;;10.68;89.83
13434;BME280;6789;47.678;9.158;2023-05-19T04:57:35;97050.16;;;10.83;89.32
13434;BME280;6789;47.678;9.158;2023-05-19T05:02:29;97056.13;;;10.72;89.35
13434;BME280;6789;47.678;9.158;2023-05-19T05:07:31;97048.66;;;10.93;88.76
13434;BME280;6789;47.678;9.158;2023-05-19T05:12:23;97042.16;;;11.14;87.46
13434;BME280;6789;47.678;9.158;2023-05-19T05:17:15;97048.22;;;10.96;88.40
13434;BME280;6789;47.678;9.158;2023-05-19T05:22:22;97047.91;;;11.04;88.60
13434;BME280;6789;47.678;9.158;2023-05-19T05:27:14;97051.63;;;11.15;87.72
13434;BME280;6789;47.678;9.158;2023-05-19T05:32:06;97054.91;;;11.10;87.89
13434;BME280;6789;47.678;9.158;2023-05-19T05:36:58;97057.53;;;10.92;88.74
13434;BME280;6789;47.678;9.158;2023-05-19T05:41:50;97057.38;;;11.05;88.37
13434;BME280;6789;47.678;9.158;2023-05-19T05:46:42;97049.00;;;10.97;89.44
13434;BME280;6789;47.678;9.158;2023-05-19T05:51:48;97053.09;;;11.11;88.59
13434;BME280;6789;47.678;9.158;2023-05-19T05:56:57;97060.66;;;10.83;89.86
13434;BME280;6789;47.678;9.158;2023-05-19T06:02:19;97066.78;;;10.95;89.26
13434;BME280;6789;47.678;9.158;2023-05-19T06:07:28;97067.66;;;10.89;89.42
13434;BME280;6789;47.678;9.158;2023-05-19T06:12:36;97065.13;;;10.82;89.99
13434;BME280;6789;47.678;9.158;2023-05-19T06:17:45;97071.75;;;10.85;89.83
13434;BME280;6789;47.678;9.158;2023-05-19T06:22:37;97058.22;;;11.06;89.38
13434;BME280;6789;47.678;9.158;2023-05-19T06:27:37;97058.44;;;11.22;88.85
13434;BME280;6789;47.678;9.158;2023-05-19T06:32:44;97053.50;;;11.26;88.44
13434;BME280;6789;47.678;9.158;2023-05-19T06:37:36;97065.19;;;11.30;88.57
13434;BME280;6789;47.678;9.158;2023-05-19T06:42:30;97058.97;;;11.60;86.71
13434;BME280;6789;47.678;9.158;2023-05-19T06:47:38;97057.59;;;11.57;87.24
13434;BME280;6789;47.678;9.158;2023-05-19T06:52:34;97061.22;;;11.56;86.90
13434;BME280;6789;47.678;9.158;2023-05-19T06:57:26;97062.78;;;11.64;86.85
13434;BME280;6789;47.678;9.158;2023-05-19T07:02:49;97055.91;;;11.63;87.05
13434;BME280;6789;47.678;9.158;2023-05-19T07:07:55;97063.25;;;11.72;86.39
13434;BME280;6789;47.678;9.158;2023-05-19T07:12:49;97063.44;;;12.00;85.76
13434;BME280;6789;47.678;9.158;2023-05-19T07:17:55;97067.78;;;11.95;85.31
13434;BME280;6789;47.678;9.158;2023-05-19T07:23:02;97064.41;;;11.76;85.21
13434;BME280;6789;47.678;9.158;2023-05-19T07:28:10;97059.19;;;11.58;87.68
13434;BME280;6789;47.678;9.158;2023-05-19T07:33:06;97061.59;;;11.89;86.20
13434;BME280;6789;47.678;9.158;2023-05-19T07:38:12;97056.44;;;12.12;84.98
13434;BME280;6789;47.678;9.158;2023-05-19T07:43:18;97056.53;;;12.28;84.56
13434;BME280;6789;47.678;9.158;2023-05-19T07:48:14;97050.53;;;12.39;83.26
13434;BME280;6789;47.678;9.158;2023-05-19T07:53:20;97047.41;;;12.42;83.53
13434;BME280;6789;47.678;9.158;2023-05-19T07:58:27;97049.50;;;12.63;82.96
13434;BME280;6789;47.678;9.158;2023-05-19T08:03:33;97053.38;;;12.72;82.38
13434;BME280;6789;47.678;9.158;2023-05-19T08:08:39;97045.63;;;12.88;81.55
13434;BME280;6789;47.678;9.158;2023-05-19T08:13:40;97046.28;;;12.84;80.89
13434;BME280;6789;47.678;9.158;2023-05-19T08:18:48;97041.22;;;13.17;80.37
13434;BME280;6789;47.678;9.158;2023-05-19T08:23:54;97044.00;;;13.50;78.92
13434;BME280;6789;47.678;9.158;2023-05-19T08:29:04;97033.50;;;13.94;76.49
13434;BME280;6789;47.678;9.158;2023-05-19T08:34:35;97034.59;;;13.53;77.41
13434;BME280;6789;47.678;9.158;2023-05-19T08:40:01;97044.34;;;13.02;79.41
13434;BME280;6789;47.678;9.158;2023-05-19T08:45:10;97028.81;;;12.89;79.42
13434;BME280;6789;47.678;9.158;2023-05-19T08:50:25;97022.56;;;13.18;78.93
13434;BME280;6789;47.678;9.158;2023-05-19T08:55:45;97017.69;;;13.94;76.66
13434;BME280;6789;47.678;9.158;2023-05-19T09:00:57;97022.84;;;14.33;74.78
13434;BME280;6789;47.678;9.158;2023-05-19T09:06:06;97021.16;;;14.76;72.89
13434;BME280;6789;47.678;9.158;2023-05-19T09:11:24;97020.22;;;14.87;72.21
13434;BME280;6789;47.678;9.158;2023-05-19T09:16:31;97018.91;;;14.03;74.26
13434;BME280;6789;47.678;9.158;2023-05-19T09:21:41;97012.63;;;14.36;73.27
13434;BME280;6789;47.678;9.158;2023-05-19T09:26:48;97009.72;;;14.54;73.55
13434;BME280;6789;47.678;9.158;2023-05-19T09:31:55;97018.66;;;14.70;72.77
13434;BME280;6789;47.678;9.158;2023-05-19T09:37:15;97002.34;;;15.32;71.19
13434;BME280;6789;47.678;9.158;2023-05-19T09:42:25;96998.34;;;15.08;71.43
13434;BME280;6789;47.678;9.158;2023-05-19T09:47:40;96998.31;;;15.46;70.08
13434;BME280;6789;47.678;9.158;2023-05-19T09:53:10;96997.28;;;16.04;67.90
13434;BME280;6789;47.678;9.158;2023-05-19T09:58:34;96990.63;;;16.59;66.02
13434;BME280;6789;47.678;9.158;2023-05-19T10:03:57;96993.56;;;17.14;64.67
13434;BME280;6789;47.678;9.158;2023-05-19T10:09:29;96978.69;;;17.69;62.72
13434;BME280;6789;47.678;9.158;2023-05-19T10:14:48;96984.28;;;18.17;60.64
13434;BME280;6789;47.678;9.158;2023-05-19T10:20:10;96975.78;;;17.95;60.11
13434;BME280;6789;47.678;9.158;2023-05-19T10:25:21;96974.47;;;17.93;60.61
13434;BME280;6789;47.678;9.158;2023-05-19T10:30:34;96975.50;;;17.72;60.77
13434;BME280;6789;47.678;9.158;2023-05-19T10:46:29;96968.66;;;18.01;59.01
13434;BME280;6789;47.678;9.158;2023-05-19T10:51:54;96971.72;;;17.43;61.08
13434;BME280;6789;47.678;9.158;2023-05-19T10:57:03;96974.19;;;17.89;60.01
13434;BME280;6789;47.678;9.158;2023-05-19T11:02:39;96967.56;;;17.87;59.60
13434;BME280;6789;47.678;9.158;2023-05-19T11:07:58;96969.44;;;18.01;59.35
13434;BME280;6789;47.678;9.158;2023-05-19T11:13:19;96960.16;;;18.04;59.74
13434;BME280;6789;47.678;9.158;2023-05-19T11:23:57;96966.56;;;18.23;59.96
13434;BME280;6789;47.678;9.158;2023-05-19T11:29:05;96954.31;;;18.17;60.08
13434;BME280;6789;47.678;9.158;2023-05-19T11:34:13;96966.34;;;17.28;60.97
13434;BME280;6789;47.678;9.158;2023-05-19T11:39:20;96954.88;;;17.13;62.49
13434;BME280;6789;47.678;9.158;2023-05-19T11:44:49;96952.97;;;17.99;60.32
13434;BME280;6789;47.678;9.158;2023-05-19T11:49:55;96950.28;;;17.75;61.10
13434;BME280;6789;47.678;9.158;2023-05-19T11:55:06;96963.53;;;16.94;61.37
13434;BME280;6789;47.678;9.158;2023-05-19T12:00:26;96951.44;;;16.61;61.76
13434;BME280;6789;47.678;9.158;2023-05-19T12:05:43;96943.50;;;17.22;59.85
13434;BME280;6789;47.678;9.158;2023-05-19T12:10:52;96941.50;;;17.49;60.26
13434;BME280;6789;47.678;9.158;2023-05-19T12:16:09;96956.41;;;17.80;58.04
13434;BME280;6789;47.678;9.158;2023-05-19T12:21:15;96947.59;;;17.45;59.77
13434;BME280;6789;47.678;9.158;2023-05-19T12:26:20;96965.59;;;16.82;62.65
13434;BME280;6789;47.678;9.158;2023-05-19T12:31:41;96948.09;;;16.81;63.18
13434;BME280;6789;47.678;9.158;2023-05-19T12:37:00;96963.63;;;16.26;63.88
13434;BME280;6789;47.678;9.158;2023-05-19T12:42:22;96951.69;;;16.65;63.93
13434;BME280;6789;47.678;9.158;2023-05-19T12:47:48;96940.41;;;16.79;62.17
13434;BME280;6789;47.678;9.158;2023-05-19T12:52:49;96936.84;;;16.23;64.12
13434;BME280;6789;47.678;9.158;2023-05-19T12:58:05;96948.72;;;16.51;62.97
13434;BME280;6789;47.678;9.158;2023-05-19T13:03:18;96929.00;;;16.79;60.58
13434;BME280;6789;47.678;9.158;2023-05-19T13:08:24;96933.28;;;16.85;60.99
13434;BME280;6789;47.678;9.158;2023-05-19T13:13:48;96928.66;;;16.60;62.06
13434;BME280;6789;47.678;9.158;2023-05-19T13:18:58;96922.31;;;16.61;63.24
13434;BME280;6789;47.678;9.158;2023-05-19T13:24:38;96926.56;;;16.26;63.95
13434;BME280;6789;47.678;9.158;2023-05-19T13:29:56;96921.25;;;16.26;65.79
13434;BME280;6789;47.678;9.158;2023-05-19T13:35:03;96931.19;;;15.47;68.46
13434;BME280;6789;47.678;9.158;2023-05-19T13:39:59;96928.09;;;15.60;69.27
13434;BME280;6789;47.678;9.158;2023-05-19T13:45:10;96936.47;;;15.47;68.91
13434;BME280;6789;47.678;9.158;2023-05-19T13:50:16;96937.44;;;15.19;70.50
13434;BME280;6789;47.678;9.158;2023-05-19T13:55:22;96952.72;;;15.34;69.78
13434;BME280;6789;47.678;9.158;2023-05-19T14:00:31;96935.72;;;15.30;69.07
13434;BME280;6789;47.678;9.158;2023-05-19T14:05:37;96939.28;;;15.67;69.23
13434;BME280;6789;47.678;9.158;2023-05-19T14:10:31;96938.28;;;15.72;68.68
13434;BME280;6789;47.678;9.158;2023-05-19T14:15:37;96942.63;;;15.57;68.43
13434;BME280;6789;47.678;9.158;2023-05-19T14:20:43;96935.63;;;15.72;68.13
13434;BME280;6789;47.678;9.158;2023-05-19T14:25:49;96935.09;;;15.71;68.54
13434;BME280;6789;47.678;9.158;2023-05-19T14:31:10;96936.22;;;15.79;68.98
13434;BME280;6789;47.678;9.158;2023-05-19T14:36:16;96938.25;;;15.41;69.52
13434;BME280;6789;47.678;9.158;2023-05-19T14:41:22;96926.06;;;15.67;69.19
13434;BME280;6789;47.678;9.158;2023-05-19T14:46:29;96939.22;;;15.62;69.03
13434;BME280;6789;47.678;9.158;2023-05-19T14:51:36;96928.69;;;15.67;68.94
13434;BME280;6789;47.678;9.158;2023-05-19T14:56:42;96921.97;;;15.80;68.62
13434;BME280;6789;47.678;9.158;2023-05-19T15:01:49;96923.72;;;16.01;67.78
13434;BME280;6789;47.678;9.158;2023-05-19T15:06:55;96925.81;;;15.99;67.39
13434;BME280;6789;47.678;9.158;2023-05-19T15:11:55;96941.63;;;15.63;68.94
13434;BME280;6789;47.678;9.158;2023-05-19T15:17:01;96918.47;;;15.49;68.95
13434;BME280;6789;47.678;9.158;2023-05-19T15:22:08;96922.47;;;15.51;69.61
13434;BME280;6789;47.678;9.158;2023-05-19T15:27:16;96927.28;;;15.54;69.03
13434;BME280;6789;47.678;9.158;2023-05-19T15:32:23;96926.88;;;15.41;69.54
13434;BME280;6789;47.678;9.158;2023-05-19T15:37:20;96923.09;;;15.32;70.00
13434;BME280;6789;47.678;9.158;2023-05-19T15:42:26;96928.63;;;15.57;69.77
13434;BME280;6789;47.678;9.158;2023-05-19T15:47:32;96918.41;;;15.39;68.99
13434;BME280;6789;47.678;9.158;2023-05-19T15:53:02;96920.88;;;15.24;69.88
13434;BME280;6789;47.678;9.158;2023-05-19T15:58:08;96922.00;;;15.28;69.91
13434;BME280;6789;47.678;9.158;2023-05-19T16:03:14;96927.94;;;15.18;70.16
13434;BME280;6789;47.678;9.158;2023-05-19T16:08:08;96913.31;;;14.90;70.68
13434;BME280;6789;47.678;9.158;2023-05-19T16:13:14;96908.94;;;15.00;70.74
13434;BME280;6789;47.678;9.158;2023-05-19T16:18:07;96903.06;;;14.93;70.76
13434;BME280;6789;47.678;9.158;2023-05-19T16:23:01;96911.34;;;14.80;72.08
13434;BME280;6789;47.678;9.158;2023-05-19T16:27:57;96906.63;;;14.82;72.11
13434;BME280;6789;47.678;9.158;2023-05-19T16:33:03;96912.16;;;14.59;72.54
13434;BME280;6789;47.678;9.158;2023-05-19T16:38:09;96910.25;;;14.55;72.61
13434;BME280;6789;47.678;9.158;2023-05-19T16:43:15;96914.53;;;14.61;72.66
13434;BME280;6789;47.678;9.158;2023-05-19T16:48:21;96921.78;;;14.70;73.08
13434;BME280;6789;47.678;9.158;2023-05-19T16:53:13;96920.44;;;14.46;73.27
13434;BME280;6789;47.678;9.158;2023-05-19T16:58:09;96906.53;;;14.34;73.75
13434;BME280;6789;47.678;9.158;2023-05-19T17:03:17;96911.59;;;14.20;74.41
13434;BME280;6789;47.678;9.158;2023-05-19T17:08:22;96910.47;;;14.16;74.98
13434;BME280;6789;47.678;9.158;2023-05-19T17:13:28;96911.59;;;14.20;75.44
13434;BME280;6789;47.678;9.158;2023-05-19T17:18:39;96907.91;;;14.21;74.97
13434;BME280;6789;47.678;9.158;2023-05-19T17:23:35;96900.06;;;14.26;75.59
13434;BME280;6789;47.678;9.158;2023-05-19T17:28:41;96909.84;;;14.25;75.70
13434;BME280;6789;47.678;9.158;2023-05-19T17:33:48;96909.84;;;14.25;75.77
13434;BME280;6789;47.678;9.158;2023-05-19T17:38:54;96910.72;;;13.98;76.19
13434;BME280;6789;47.678;9.158;2023-05-19T17:43:59;96911.88;;;14.07;76.44
13434;BME280;6789;47.678;9.158;2023-05-19T17:48:57;96917.66;;;14.04;76.01
13434;BME280;6789;47.678;9.158;2023-05-19T17:54:04;96920.19;;;13.99;76.39
13434;BME280;6789;47.678;9.158;2023-05-19T17:59:10;96918.50;;;13.93;76.96
13434;BME280;6789;47.678;9.158;2023-05-19T18:04:06;96907.66;;;14.06;76.53
13434;BME280;6789;47.678;9.158;2023-05-19T18:09:07;96914.44;;;14.02;75.98
13434;BME280;6789;47.678;9.158;2023-05-19T18:14:03;96919.00;;;14.06;76.24
13434;BME280;6789;47.678;9.158;2023-05-19T18:19:10;96913.03;;;14.11;75.38
13434;BME280;6789;47.678;9.158;2023-05-19T18:24:16;96902.13;;;14.24;74.88
13434;BME280;6789;47.678;9.158;2023-05-19T18:29:22;96916.38;;;14.23;75.41
13434;BME280;6789;47.678;9.158;2023-05-19T18:34:33;96919.16;;;14.32;75.08
13434;BME280;6789;47.678;9.158;2023-05-19T18:39:26;96922.69;;;14.38;74.68
13434;BME280;6789;47.678;9.158;2023-05-19T18:44:20;96921.00;;;14.32;74.76
13434;BME280;6789;47.678;9.158;2023-05-19T18:49:25;96913.63;;;14.34;75.05
13434;BME280;6789;47.678;9.158;2023-05-19T18:54:19;96904.69;;;14.35;74.98
13434;BME280;6789;47.678;9.158;2023-05-19T18:59:21;96901.00;;;14.36;74.84
13434;BME280;6789;47.678;9.158;2023-05-19T19:04:28;96914.47;;;14.18;75.59
13434;BME280;6789;47.678;9.158;2023-05-19T19:09:25;96916.84;;;14.20;75.78
13434;BME280;6789;47.678;9.158;2023-05-19T19:14:20;96914.78;;;14.22;76.25
13434;BME280;6789;47.678;9.158;2023-05-19T19:19:25;96909.97;;;14.35;74.97
13434;BME280;6789;47.678;9.158;2023-05-19T19:24:34;96921.66;;;14.06;76.39
13434;BME280;6789;47.678;9.158;2023-05-19T19:29:40;96929.41;;;14.13;76.85
13434;BME280;6789;47.678;9.158;2023-05-19T19:34:46;96925.16;;;14.12;76.06
13434;BME280;6789;47.678;9.158;2023-05-19T19:39:52;96914.41;;;14.13;75.86
13434;BME280;6789;47.678;9.158;2023-05-19T19:44:58;96926.31;;;14.16;76.49
13434;BME280;6789;47.678;9.158;2023-05-19T19:50:04;96916.59;;;14.37;75.82
13434;BME280;6789;47.678;9.158;2023-05-19T19:55:13;96923.25;;;14.24;76.19
13434;BME280;6789;47.678;9.158;2023-05-19T20:00:18;96931.25;;;14.28;76.05
13434;BME280;6789;47.678;9.158;2023-05-19T20:05:24;96919.09;;;14.27;76.46
13434;BME280;6789;47.678;9.158;2023-05-19T20:10:50;96919.44;;;14.15;76.91
13434;BME280;6789;47.678;9.158;2023-05-19T20:15:56;96914.69;;;14.00;77.59
13434;BME280;6789;47.678;9.158;2023-05-19T20:21:02;96915.47;;;14.01;78.13
13434;BME280;6789;47.678;9.158;2023-05-19T20:25:58;96912.84;;;14.01;78.68
13434;BME280;6789;47.678;9.158;2023-05-19T20:31:05;96902.31;;;14.01;78.94
13434;BME280;6789;47.678;9.158;2023-05-19T20:36:10;96901.50;;;14.00;77.98
13434;BME280;6789;47.678;9.158;2023-05-19T20:41:16;96893.91;;;14.04;78.74
13434;BME280;6789;47.678;9.158;2023-05-19T20:46:23;96886.81;;;14.21;78.18
13434;BME280;6789;47.678;9.158;2023-05-19T20:51:31;96889.06;;;14.12;78.94
13434;BME280;6789;47.678;9.158;2023-05-19T20:56:25;96883.22;;;14.10;79.15
13434;BME280;6789;47.678;9.158;2023-05-19T21:01:21;96883.59;;;14.02;78.98
13434;BME280;6789;47.678;9.158;2023-05-19T21:06:29;96883.28;;;13.99;79.37
13434;BME280;6789;47.678;9.158;2023-05-19T21:11:39;96883.69;;;13.74;80.85
13434;BME280;6789;47.678;9.158;2023-05-19T21:17:22;96876.03;;;13.73;81.54
13434;BME280;6789;47.678;9.158;2023-05-19T21:22:32;96876.44;;;13.65;82.23
13434;BME280;6789;47.678;9.158;2023-05-19T21:27:43;96871.94;;;13.65;82.34
13434;BME280;6789;47.678;9.158;2023-05-19T21:32:51;96871.94;;;13.65;83.25
13434;BME280;6789;47.678;9.158;2023-05-19T21:37:57;96882.34;;;13.72;82.97
13434;BME280;6789;47.678;9.158;2023-05-19T21:43:04;96871.63;;;13.62;83.53
13434;BME280;6789;47.678;9.158;2023-05-19T21:48:10;96855.28;;;13.76;83.24
13434;BME280;6789;47.678;9.158;2023-05-19T21:53:16;96842.50;;;13.52;84.96
13434;BME280;6789;47.678;9.158;2023-05-19T21:58:24;96840.50;;;13.59;85.18
13434;BME280;6789;47.678;9.158;2023-05-19T22:03:30;96840.56;;;13.48;85.62
13434;BME280;6789;47.678;9.158;2023-05-19T22:08:35;96839.47;;;13.44;86.02
13434;BME280;6789;47.678;9.158;2023-05-19T22:13:41;96830.59;;;13.50;85.70
13434;BME280;6789;47.678;9.158;2023-05-19T22:18:47;96815.56;;;13.50;85.21
13434;BME280;6789;47.678;9.158;2023-05-19T22:23:54;96818.06;;;13.56;85.09
13434;BME280;6789;47.678;9.158;2023-05-19T22:28:48;96809.91;;;13.42;86.69
13434;BME280;6789;47.678;9.158;2023-05-19T22:33:56;96816.22;;;13.41;86.54
13434;BME280;6789;47.678;9.158;2023-05-19T22:39:02;96804.63;;;13.42;86.53
13434;BME280;6789;47.678;9.158;2023-05-19T22:44:08;96802.06;;;13.47;86.21
13434;BME280;6789;47.678;9.158;2023-05-19T22:49:15;96794.34;;;13.40;86.66
13434;BME280;6789;47.678;9.158;2023-05-19T22:54:21;96798.34;;;13.43;86.78
13434;BME280;6789;47.678;9.158;2023-05-19T22:59:28;96803.75;;;13.52;86.76
13434;BME280;6789;47.678;9.158;2023-05-19T23:04:34;96799.94;;;13.60;86.23
13434;BME280;6789;47.678;9.158;2023-05-19T23:09:46;96795.31;;;13.51;87.22
13434;BME280;6789;47.678;9.158;2023-05-19T23:14:52;96786.19;;;13.58;86.81
13434;BME280;6789;47.678;9.158;2023-05-19T23:19:45;96776.53;;;13.47;87.37
13434;BME280;6789;47.678;9.158;2023-05-19T23:24:54;96773.03;;;13.58;87.25
13434;BME280;6789;47.678;9.158;2023-05-19T23:30:02;96766.72;;;13.59;86.66
13434;BME280;6789;47.678;9.158;2023-05-19T23:35:18;96752.59;;;13.49;87.75
13434;BME280;6789;47.678;9.158;2023-05-19T23:40:25;96745.66;;;13.26;89.38
13434;BME280;6789;47.678;9.158;2023-05-19T23:45:17;96752.75;;;13.42;88.47
13434;BME280;6789;47.678;9.158;2023-05-19T23:50:12;96752.75;;;13.42;89.00
13434;BME280;6789;47.678;9.158;2023-05-19T23:55:18;96744.88;;;13.42;88.42
